CTN4W LDZA-LDZD
Flight info
| Callsign | CTN4W |
|---|---|
| Flight time | 0h 33m |
| Altitude | 20000 |
| Route | KOTOR M986 KULEN/N0395F190 M986 LOS |
| Aircraft | A319/M-SDE3FGHIRWY/LB1 |
Departure
| Time | 2026-04-17 21:24 |
|---|---|
| Airport | Zagreb Franjo Tuđman International Airport (LDZA) |
Arrival
| Time | 2026-04-17 21:58 |
|---|---|
| Airport | Zadar Airport (LDZD) |
| Time | Latitude | Longitude | Altitude | Speed | Heading |
|---|---|---|---|---|---|
| 2026-04-17 21:00 | 45.74206 | 16.07877 | 359 ft | 0 kts | 136° |
| 2026-04-17 21:16 | 45.74219 | 16.07859 | 362 ft | 4 kts | 138° |
| 2026-04-17 21:16 | 45.74240 | 16.07834 | 366 ft | 4 kts | 143° |
| 2026-04-17 21:17 | 45.74262 | 16.07814 | 363 ft | 4 kts | 159° |
| 2026-04-17 21:17 | 45.74284 | 16.07809 | 361 ft | 4 kts | 214° |
| 2026-04-17 21:17 | 45.74289 | 16.07813 | 359 ft | 0 kts | 226° |
| 2026-04-17 21:18 | 45.74288 | 16.07812 | 360 ft | 1 kts | 227° |
| 2026-04-17 21:19 | 45.74262 | 16.07773 | 359 ft | 9 kts | 226° |
| 2026-04-17 21:19 | 45.74201 | 16.07678 | 366 ft | 17 kts | 229° |
| 2026-04-17 21:19 | 45.74115 | 16.07550 | 366 ft | 18 kts | 226° |
| 2026-04-17 21:19 | 45.74072 | 16.07400 | 359 ft | 18 kts | 303° |
| 2026-04-17 21:20 | 45.74164 | 16.07275 | 359 ft | 19 kts | 316° |
| 2026-04-17 21:20 | 45.74196 | 16.07126 | 361 ft | 18 kts | 233° |
| 2026-04-17 21:20 | 45.74111 | 16.06994 | 359 ft | 18 kts | 225° |
| 2026-04-17 21:20 | 45.74022 | 16.06862 | 359 ft | 19 kts | 226° |
| 2026-04-17 21:21 | 45.73933 | 16.06725 | 359 ft | 19 kts | 226° |
| 2026-04-17 21:21 | 45.73841 | 16.06585 | 359 ft | 19 kts | 225° |
| 2026-04-17 21:21 | 45.73749 | 16.06446 | 359 ft | 20 kts | 227° |
| 2026-04-17 21:21 | 45.73654 | 16.06300 | 359 ft | 20 kts | 226° |
| 2026-04-17 21:22 | 45.73559 | 16.06156 | 361 ft | 20 kts | 226° |
| 2026-04-17 21:22 | 45.73471 | 16.06024 | 359 ft | 19 kts | 226° |
| 2026-04-17 21:22 | 45.73381 | 16.05888 | 362 ft | 19 kts | 226° |
| 2026-04-17 21:22 | 45.73293 | 16.05750 | 365 ft | 14 kts | 237° |
| 2026-04-17 21:23 | 45.73330 | 16.05645 | 360 ft | 12 kts | 318° |
| 2026-04-17 21:23 | 45.73391 | 16.05568 | 362 ft | 11 kts | 332° |
| 2026-04-17 21:23 | 45.73459 | 16.05607 | 366 ft | 13 kts | 48° |
| 2026-04-17 21:23 | 45.73634 | 16.05874 | 362 ft | 74 kts | 47° |
| 2026-04-17 21:24 | 45.74161 | 16.06675 | 366 ft | 144 kts | 46° |
| 2026-04-17 21:24 | 45.74958 | 16.07894 | 538 ft | 182 kts | 47° |
| 2026-04-17 21:24 | 45.75657 | 16.09467 | 1108 ft | 197 kts | 66° |
| 2026-04-17 21:24 | 45.76015 | 16.11485 | 1614 ft | 221 kts | 83° |
| 2026-04-17 21:25 | 45.75919 | 16.13721 | 2505 ft | 229 kts | 99° |
| 2026-04-17 21:25 | 45.75569 | 16.15951 | 3525 ft | 231 kts | 100° |
| 2026-04-17 21:25 | 45.75227 | 16.18211 | 4472 ft | 234 kts | 99° |
| 2026-04-17 21:25 | 45.74887 | 16.20479 | 5393 ft | 238 kts | 99° |
| 2026-04-17 21:26 | 45.74537 | 16.22814 | 6327 ft | 242 kts | 99° |
| 2026-04-17 21:26 | 45.74184 | 16.25187 | 7220 ft | 246 kts | 99° |
| 2026-04-17 21:26 | 45.73823 | 16.27603 | 8100 ft | 250 kts | 99° |
| 2026-04-17 21:26 | 45.73258 | 16.29997 | 8983 ft | 260 kts | 113° |
| 2026-04-17 21:27 | 45.72219 | 16.32156 | 9871 ft | 269 kts | 129° |
| 2026-04-17 21:27 | 45.70837 | 16.34019 | 10686 ft | 275 kts | 134° |
| 2026-04-17 21:27 | 45.69343 | 16.35783 | 11438 ft | 285 kts | 147° |
| 2026-04-17 21:27 | 45.67457 | 16.36631 | 12164 ft | 295 kts | 176° |
| 2026-04-17 21:28 | 45.65399 | 16.36165 | 12652 ft | 312 kts | 206° |
| 2026-04-17 21:28 | 45.63671 | 16.34273 | 13228 ft | 318 kts | 230° |
| 2026-04-17 21:28 | 45.62161 | 16.31926 | 13993 ft | 323 kts | 231° |
| 2026-04-17 21:28 | 45.60630 | 16.29548 | 14707 ft | 327 kts | 231° |
| 2026-04-17 21:29 | 45.59076 | 16.27156 | 15444 ft | 330 kts | 230° |
| 2026-04-17 21:29 | 45.57503 | 16.24752 | 16189 ft | 333 kts | 230° |
| 2026-04-17 21:29 | 45.55914 | 16.22332 | 16915 ft | 336 kts | 230° |
| 2026-04-17 21:29 | 45.54305 | 16.19890 | 17655 ft | 339 kts | 230° |
| 2026-04-17 21:30 | 45.52705 | 16.17467 | 18376 ft | 342 kts | 231° |
| 2026-04-17 21:30 | 45.51068 | 16.14984 | 18979 ft | 345 kts | 231° |
| 2026-04-17 21:30 | 45.49544 | 16.12338 | 19586 ft | 345 kts | 239° |
| 2026-04-17 21:30 | 45.48292 | 16.09425 | 19897 ft | 344 kts | 248° |
| 2026-04-17 21:31 | 45.47357 | 16.06289 | 19983 ft | 349 kts | 256° |
| 2026-04-17 21:31 | 45.46739 | 16.02852 | 19994 ft | 368 kts | 264° |
| 2026-04-17 21:31 | 45.46455 | 15.99143 | 19994 ft | 386 kts | 270° |
| 2026-04-17 21:31 | 45.46264 | 15.95227 | 19993 ft | 406 kts | 270° |
| 2026-04-17 21:32 | 45.46050 | 15.91136 | 19993 ft | 419 kts | 269° |
| 2026-04-17 21:32 | 45.45822 | 15.87031 | 19990 ft | 423 kts | 269° |
| 2026-04-17 21:32 | 45.45578 | 15.82844 | 19993 ft | 424 kts | 269° |
| 2026-04-17 21:32 | 45.45332 | 15.78652 | 19994 ft | 425 kts | 269° |
| 2026-04-17 21:33 | 45.45089 | 15.74461 | 19991 ft | 425 kts | 269° |
| 2026-04-17 21:33 | 45.44848 | 15.70267 | 19992 ft | 425 kts | 269° |
| 2026-04-17 21:33 | 45.44611 | 15.66076 | 19999 ft | 425 kts | 269° |
| 2026-04-17 21:33 | 45.44225 | 15.61898 | 19997 ft | 428 kts | 261° |
| 2026-04-17 21:34 | 45.43325 | 15.57836 | 19998 ft | 433 kts | 250° |
| 2026-04-17 21:34 | 45.41925 | 15.54093 | 19997 ft | 437 kts | 239° |
| 2026-04-17 21:34 | 45.37983 | 15.47436 | 19999 ft | 441 kts | 231° |
| 2026-04-17 21:35 | 45.35940 | 15.44184 | 19997 ft | 441 kts | 231° |
| 2026-04-17 21:35 | 45.33898 | 15.40931 | 19998 ft | 441 kts | 231° |
| 2026-04-17 21:35 | 45.31850 | 15.37679 | 19990 ft | 441 kts | 231° |
| 2026-04-17 21:35 | 45.29806 | 15.34439 | 19995 ft | 441 kts | 231° |
| 2026-04-17 21:36 | 45.27759 | 15.31195 | 19995 ft | 441 kts | 231° |
| 2026-04-17 21:36 | 45.25718 | 15.27953 | 20002 ft | 441 kts | 231° |
| 2026-04-17 21:36 | 45.23708 | 15.24749 | 20004 ft | 440 kts | 231° |
| 2026-04-17 21:36 | 45.21670 | 15.21506 | 20004 ft | 440 kts | 231° |
| 2026-04-17 21:37 | 45.19630 | 15.18269 | 20004 ft | 440 kts | 231° |
| 2026-04-17 21:37 | 45.17584 | 15.15040 | 20117 ft | 441 kts | 230° |
| 2026-04-17 21:37 | 45.15313 | 15.12071 | 20146 ft | 448 kts | 220° |
| 2026-04-17 21:37 | 45.12806 | 15.09438 | 20153 ft | 449 kts | 219° |
| 2026-04-17 21:38 | 45.10291 | 15.06817 | 20158 ft | 449 kts | 219° |
| 2026-04-17 21:38 | 45.07773 | 15.04192 | 20165 ft | 449 kts | 219° |
| 2026-04-17 21:38 | 45.05296 | 15.01606 | 20161 ft | 449 kts | 219° |
| 2026-04-17 21:38 | 45.02783 | 14.98983 | 20157 ft | 448 kts | 219° |
| 2026-04-17 21:39 | 45.00276 | 14.96367 | 20151 ft | 448 kts | 219° |
| 2026-04-17 21:39 | 44.97769 | 14.93754 | 20146 ft | 448 kts | 219° |
| 2026-04-17 21:39 | 44.95258 | 14.91141 | 20138 ft | 448 kts | 219° |
| 2026-04-17 21:39 | 44.92764 | 14.88546 | 20131 ft | 448 kts | 219° |
| 2026-04-17 21:40 | 44.90241 | 14.85926 | 20134 ft | 448 kts | 219° |
| 2026-04-17 21:40 | 44.87728 | 14.83323 | 20127 ft | 448 kts | 219° |
| 2026-04-17 21:40 | 44.85249 | 14.80754 | 20129 ft | 448 kts | 219° |
| 2026-04-17 21:40 | 44.82738 | 14.78158 | 20132 ft | 448 kts | 219° |
| 2026-04-17 21:41 | 44.80223 | 14.75559 | 20110 ft | 448 kts | 219° |
| 2026-04-17 21:41 | 44.77711 | 14.72964 | 20115 ft | 448 kts | 219° |
| 2026-04-17 21:41 | 44.75196 | 14.70367 | 20114 ft | 448 kts | 219° |
| 2026-04-17 21:41 | 44.72687 | 14.67779 | 20113 ft | 448 kts | 219° |
| 2026-04-17 21:42 | 44.70171 | 14.65190 | 20118 ft | 448 kts | 218° |
| 2026-04-17 21:42 | 44.67657 | 14.62610 | 20126 ft | 448 kts | 218° |
| 2026-04-17 21:42 | 44.65144 | 14.60034 | 20112 ft | 447 kts | 218° |
| 2026-04-17 21:42 | 44.62627 | 14.57454 | 20113 ft | 448 kts | 218° |
| 2026-04-17 21:43 | 44.60141 | 14.54921 | 20110 ft | 448 kts | 217° |
| 2026-04-17 21:43 | 44.57374 | 14.52892 | 20098 ft | 452 kts | 201° |
| 2026-04-17 21:43 | 44.54334 | 14.51910 | 19908 ft | 447 kts | 185° |
| 2026-04-17 21:43 | 44.51253 | 14.52103 | 19664 ft | 443 kts | 169° |
| 2026-04-17 21:44 | 44.48335 | 14.53340 | 19106 ft | 437 kts | 154° |
| 2026-04-17 21:44 | 44.45764 | 14.55551 | 18514 ft | 432 kts | 139° |
| 2026-04-17 21:44 | 44.43495 | 14.58263 | 17877 ft | 428 kts | 137° |
| 2026-04-17 21:44 | 44.41243 | 14.60963 | 17320 ft | 424 kts | 137° |
| 2026-04-17 21:45 | 44.39005 | 14.63629 | 16762 ft | 421 kts | 137° |
| 2026-04-17 21:45 | 44.36811 | 14.66231 | 16210 ft | 417 kts | 138° |
| 2026-04-17 21:45 | 44.34605 | 14.68845 | 15637 ft | 415 kts | 137° |
| 2026-04-17 21:45 | 44.32554 | 14.71642 | 15079 ft | 410 kts | 132° |
| 2026-04-17 21:46 | 44.30577 | 14.74502 | 14503 ft | 408 kts | 132° |
| 2026-04-17 21:46 | 44.28612 | 14.77340 | 13909 ft | 406 kts | 132° |
| 2026-04-17 21:46 | 44.26654 | 14.80160 | 13251 ft | 403 kts | 132° |
| 2026-04-17 21:46 | 44.24713 | 14.82949 | 12635 ft | 399 kts | 132° |
| 2026-04-17 21:47 | 44.22790 | 14.85708 | 12000 ft | 395 kts | 132° |
| 2026-04-17 21:47 | 44.20911 | 14.88404 | 11351 ft | 390 kts | 131° |
| 2026-04-17 21:47 | 44.19034 | 14.91096 | 10934 ft | 380 kts | 131° |
| 2026-04-17 21:47 | 44.17236 | 14.93668 | 10815 ft | 362 kts | 131° |
| 2026-04-17 21:48 | 44.15519 | 14.96122 | 10683 ft | 346 kts | 131° |
| 2026-04-17 21:48 | 44.13880 | 14.98468 | 10575 ft | 331 kts | 131° |
| 2026-04-17 21:48 | 44.12304 | 15.00721 | 10462 ft | 318 kts | 131° |
| 2026-04-17 21:48 | 44.10789 | 15.02884 | 10328 ft | 307 kts | 131° |
| 2026-04-17 21:49 | 44.09318 | 15.04986 | 10083 ft | 301 kts | 131° |
| 2026-04-17 21:49 | 44.07704 | 15.06798 | 9926 ft | 302 kts | 149° |
| 2026-04-17 21:49 | 44.05654 | 15.07533 | 9367 ft | 310 kts | 180° |
| 2026-04-17 21:49 | 44.03619 | 15.06866 | 9071 ft | 305 kts | 207° |
| 2026-04-17 21:50 | 44.01920 | 15.05131 | 8660 ft | 303 kts | 222° |
| 2026-04-17 21:50 | 44.00320 | 15.03234 | 8141 ft | 301 kts | 216° |
| 2026-04-17 21:50 | 43.98420 | 15.02146 | 7508 ft | 295 kts | 186° |
| 2026-04-17 21:50 | 43.96427 | 15.02409 | 6907 ft | 286 kts | 157° |
| 2026-04-17 21:51 | 43.94791 | 15.03849 | 6296 ft | 276 kts | 131° |
| 2026-04-17 21:51 | 43.93519 | 15.05815 | 5630 ft | 273 kts | 128° |
| 2026-04-17 21:51 | 43.92267 | 15.07776 | 5002 ft | 270 kts | 128° |
| 2026-04-17 21:51 | 43.91282 | 15.09878 | 4362 ft | 259 kts | 105° |
| 2026-04-17 21:52 | 43.91166 | 15.12298 | 3753 ft | 250 kts | 74° |
| 2026-04-17 21:52 | 43.91922 | 15.14341 | 3498 ft | 231 kts | 47° |
| 2026-04-17 21:52 | 43.93055 | 15.15785 | 3374 ft | 213 kts | 42° |
| 2026-04-17 21:52 | 43.94141 | 15.17120 | 3262 ft | 203 kts | 42° |
| 2026-04-17 21:53 | 43.95172 | 15.18389 | 3169 ft | 193 kts | 42° |
| 2026-04-17 21:53 | 43.96151 | 15.19593 | 3083 ft | 183 kts | 42° |
| 2026-04-17 21:53 | 43.97057 | 15.20706 | 3008 ft | 165 kts | 42° |
| 2026-04-17 21:53 | 43.97872 | 15.21710 | 2917 ft | 149 kts | 42° |
| 2026-04-17 21:54 | 43.98610 | 15.22621 | 2794 ft | 141 kts | 42° |
| 2026-04-17 21:54 | 43.99327 | 15.23505 | 2595 ft | 137 kts | 42° |
| 2026-04-17 21:54 | 44.00037 | 15.24379 | 2410 ft | 136 kts | 41° |
| 2026-04-17 21:54 | 44.00749 | 15.25254 | 2226 ft | 138 kts | 41° |
| 2026-04-17 21:55 | 44.01468 | 15.26138 | 2045 ft | 139 kts | 42° |
| 2026-04-17 21:55 | 44.02190 | 15.27025 | 1856 ft | 139 kts | 41° |
| 2026-04-17 21:55 | 44.02911 | 15.27912 | 1673 ft | 137 kts | 42° |
| 2026-04-17 21:55 | 44.03627 | 15.28796 | 1482 ft | 137 kts | 42° |
| 2026-04-17 21:56 | 44.04337 | 15.29671 | 1306 ft | 136 kts | 41° |
| 2026-04-17 21:56 | 44.05032 | 15.30526 | 1123 ft | 135 kts | 40° |
| 2026-04-17 21:56 | 44.05730 | 15.31386 | 945 ft | 133 kts | 40° |
| 2026-04-17 21:56 | 44.06424 | 15.32248 | 778 ft | 135 kts | 41° |
| 2026-04-17 21:57 | 44.07123 | 15.33120 | 556 ft | 134 kts | 40° |
| 2026-04-17 21:57 | 44.07828 | 15.33975 | 388 ft | 134 kts | 40° |
| 2026-04-17 21:57 | 44.08525 | 15.34822 | 303 ft | 127 kts | 41° |
| 2026-04-17 21:57 | 44.09016 | 15.35436 | 302 ft | 53 kts | 42° |
| 2026-04-17 21:58 | 44.09137 | 15.35589 | 300 ft | 17 kts | 43° |
| 2026-04-17 21:58 | 44.09237 | 15.35715 | 300 ft | 22 kts | 37° |
| 2026-04-17 21:58 | 44.09359 | 15.35634 | 302 ft | 23 kts | 311° |
| 2026-04-17 21:58 | 44.09486 | 15.35546 | 299 ft | 24 kts | 355° |
| 2026-04-17 21:59 | 44.09562 | 15.35490 | 296 ft | 12 kts | 281° |
| 2026-04-17 21:59 | 44.09605 | 15.35438 | 296 ft | 4 kts | 325° |
| 2026-04-17 21:59 | 44.09606 | 15.35437 | 296 ft | 0 kts | 325° |